createdAt,value
2022-09-02T00:00:59.979Z,44.60
2022-09-02T00:03:27.507Z,44.80
2022-09-02T00:05:54.368Z,44.60
2022-09-02T00:08:21.145Z,44.70
2022-09-02T00:10:47.883Z,44.70
2022-09-02T00:13:15.225Z,44.80
2022-09-02T00:15:42.397Z,44.70
2022-09-02T00:18:15.383Z,44.70
2022-09-02T00:20:45.796Z,44.70
2022-09-02T00:23:12.967Z,45.30
2022-09-02T00:25:39.900Z,44.80
2022-09-02T00:28:06.760Z,45.00
2022-09-02T00:30:33.827Z,45.10
2022-09-02T00:33:00.581Z,45.20
2022-09-02T00:35:27.956Z,45.20
2022-09-02T00:37:54.720Z,45.10
2022-09-02T00:40:23.366Z,45.10
2022-09-02T00:42:50.644Z,45.10
2022-09-02T00:45:18.279Z,45.30
2022-09-02T00:47:45.599Z,45.40
2022-09-02T00:50:12.889Z,45.30
2022-09-02T00:53:03.023Z,39.90
2022-09-02T00:55:30.666Z,39.80
2022-09-02T00:57:59.777Z,41.80
2022-09-02T01:00:31.260Z,43.80
2022-09-02T01:03:03.308Z,44.40
2022-09-02T01:05:30.780Z,45.00
2022-09-02T01:07:58.208Z,45.00
2022-09-02T01:10:28.107Z,45.10
2022-09-02T01:12:55.905Z,44.90
2022-09-02T01:15:22.711Z,45.10
2022-09-02T01:17:49.669Z,45.10
2022-09-02T01:20:17.427Z,45.10
2022-09-02T01:22:45.815Z,45.20
2022-09-02T01:25:14.157Z,45.10
2022-09-02T01:27:43.007Z,45.20
2022-09-02T01:30:11.170Z,45.20
2022-09-02T01:32:37.948Z,45.30
2022-09-02T01:35:05.338Z,45.10
2022-09-02T01:37:32.335Z,45.20
2022-09-02T01:39:59.658Z,45.40
2022-09-02T01:42:26.566Z,45.30
2022-09-02T01:44:53.424Z,45.30
2022-09-02T01:47:21.461Z,45.50
2022-09-02T01:49:48.471Z,45.40
2022-09-02T01:52:15.262Z,45.50
2022-09-02T01:54:42.052Z,45.50
2022-09-02T01:57:08.866Z,45.40
2022-09-02T01:59:35.618Z,45.50
2022-09-02T02:02:02.628Z,45.40
2022-09-02T02:04:29.491Z,45.50
2022-09-02T02:06:56.836Z,45.60
2022-09-02T02:09:23.836Z,45.60
2022-09-02T02:11:51.228Z,45.60
2022-09-02T02:14:18.136Z,45.70
2022-09-02T02:16:45.361Z,45.70
2022-09-02T02:19:12.217Z,45.70
2022-09-02T02:21:39.008Z,45.70
2022-09-02T02:24:05.990Z,45.70
2022-09-02T02:26:32.886Z,45.80
2022-09-02T02:28:59.633Z,45.60
2022-09-02T02:31:26.491Z,45.80
2022-09-02T02:33:53.306Z,45.60
2022-09-02T02:36:20.108Z,45.60
2022-09-02T02:38:47.473Z,45.60
2022-09-02T02:41:14.451Z,45.60
2022-09-02T02:43:41.257Z,45.70
2022-09-02T02:46:08.221Z,45.70
2022-09-02T02:48:35.297Z,45.70
2022-09-02T02:51:02.279Z,45.70
2022-09-02T02:53:31.185Z,45.70
2022-09-02T02:55:58.518Z,45.60
2022-09-02T02:58:25.295Z,45.70
2022-09-02T03:00:52.117Z,45.70
2022-09-02T03:03:19.871Z,45.70
2022-09-02T03:05:47.635Z,45.60
2022-09-02T03:08:14.405Z,45.60
2022-09-02T03:10:42.079Z,45.60
2022-09-02T03:13:09.887Z,45.60
2022-09-02T03:15:37.243Z,45.60
2022-09-02T03:18:04.093Z,45.60
2022-09-02T03:20:31.274Z,45.70
2022-09-02T03:22:59.126Z,45.60
2022-09-02T03:25:26.408Z,45.60
2022-09-02T03:27:53.269Z,45.70
2022-09-02T03:30:25.240Z,45.70
2022-09-02T03:32:52.725Z,45.50
2022-09-02T03:35:19.824Z,45.70
2022-09-02T03:37:46.589Z,45.70
2022-09-02T03:40:14.991Z,45.70
2022-09-02T03:42:41.812Z,45.60
2022-09-02T03:45:10.306Z,45.60
2022-09-02T03:47:37.101Z,45.70
2022-09-02T03:50:04.132Z,45.60
2022-09-02T03:52:30.948Z,45.60
2022-09-02T03:54:57.775Z,45.70
2022-09-02T03:57:26.881Z,45.60
2022-09-02T03:59:53.796Z,45.70
2022-09-02T04:02:20.663Z,45.60
2022-09-02T04:04:47.558Z,45.60
2022-09-02T04:07:14.358Z,45.60
2022-09-02T04:09:45.957Z,45.60
2022-09-02T04:12:13.451Z,45.60
2022-09-02T04:14:40.221Z,45.60
2022-09-02T04:17:07.029Z,45.60
2022-09-02T04:19:33.777Z,45.60
2022-09-02T04:22:00.611Z,45.50
2022-09-02T04:24:27.569Z,45.40
2022-09-02T04:26:54.306Z,45.60
2022-09-02T04:29:21.102Z,45.60
2022-09-02T04:31:47.839Z,45.60
2022-09-02T04:34:14.623Z,45.50
2022-09-02T04:36:41.579Z,45.40
2022-09-02T04:39:09.454Z,45.50
2022-09-02T04:41:36.315Z,45.60
2022-09-02T04:44:03.283Z,45.40
2022-09-02T04:46:34.670Z,45.40
2022-09-02T04:49:02.236Z,45.50
2022-09-02T04:51:29.036Z,45.60
2022-09-02T04:53:55.892Z,45.40
2022-09-02T04:56:23.640Z,45.40
2022-09-02T04:58:51.712Z,45.50
2022-09-02T05:01:23.339Z,45.50
2022-09-02T05:03:50.203Z,45.40
2022-09-02T05:06:17.531Z,45.20
2022-09-02T05:08:48.140Z,45.60
2022-09-02T05:11:18.522Z,46.10
2022-09-02T05:13:46.079Z,45.50
2022-09-02T05:16:15.730Z,45.50
2022-09-02T05:18:42.536Z,45.50
2022-09-02T05:21:09.724Z,45.60
2022-09-02T05:23:36.830Z,45.40
2022-09-02T05:26:06.693Z,45.40
2022-09-02T05:28:33.564Z,45.30
2022-09-02T05:31:05.691Z,45.50
2022-09-02T05:33:33.579Z,45.30
2022-09-02T05:36:00.327Z,45.50
2022-09-02T05:38:27.162Z,45.40
2022-09-02T05:40:54.037Z,45.60
2022-09-02T05:43:20.981Z,46.00
2022-09-02T05:45:48.949Z,45.40
2022-09-02T05:48:34.475Z,45.50
2022-09-02T05:51:04.616Z,45.30
2022-09-02T05:53:31.399Z,45.50
2022-09-02T05:55:58.949Z,45.40
2022-09-02T05:58:25.714Z,45.40
2022-09-02T06:00:52.483Z,45.40
2022-09-02T06:03:21.059Z,45.40
2022-09-02T06:05:57.397Z,45.40
2022-09-02T06:08:24.411Z,45.20
2022-09-02T06:10:51.169Z,45.50
2022-09-02T06:13:22.727Z,45.50
2022-09-02T06:15:50.086Z,45.50
2022-09-02T06:18:17.718Z,45.40
2022-09-02T06:20:45.674Z,45.40
2022-09-02T06:23:12.674Z,45.40
2022-09-02T06:25:39.683Z,45.30
2022-09-02T06:28:07.425Z,45.50
2022-09-02T06:30:34.482Z,45.40
2022-09-02T06:33:03.716Z,45.40
2022-09-02T06:35:32.039Z,45.50
2022-09-02T06:38:00.561Z,45.40
2022-09-02T06:40:27.490Z,45.40
2022-09-02T06:42:54.405Z,45.50
2022-09-02T06:45:21.308Z,45.40
2022-09-02T06:47:48.074Z,45.30
2022-09-02T06:50:15.420Z,45.50
2022-09-02T06:52:42.244Z,45.50
2022-09-02T06:55:10.650Z,45.40
2022-09-02T06:57:38.103Z,45.30
2022-09-02T07:00:06.108Z,45.60
2022-09-02T07:02:32.860Z,45.50
2022-09-02T07:05:15.176Z,45.50
2022-09-02T07:07:42.498Z,45.30
2022-09-02T07:10:10.303Z,45.40
2022-09-02T07:12:37.765Z,45.50
2022-09-02T07:15:04.924Z,45.60
2022-09-02T07:17:31.770Z,45.50
2022-09-02T07:20:00.363Z,45.30
2022-09-02T07:22:27.752Z,45.90
2022-09-02T07:24:54.629Z,45.50
2022-09-02T07:27:21.458Z,45.40
2022-09-02T07:29:49.110Z,45.50
2022-09-02T07:32:16.413Z,45.40
2022-09-02T07:34:43.181Z,45.50
2022-09-02T07:37:11.005Z,45.20
2022-09-02T07:39:38.000Z,45.40
2022-09-02T07:42:04.917Z,45.40
2022-09-02T07:44:34.511Z,45.30
2022-09-02T07:47:01.530Z,45.40
2022-09-02T07:49:28.478Z,45.30
2022-09-02T07:51:55.204Z,45.40
2022-09-02T07:54:23.358Z,45.30
2022-09-02T07:56:50.879Z,45.40
2022-09-02T07:59:18.083Z,45.40
2022-09-02T08:01:44.926Z,45.50
2022-09-02T08:04:12.303Z,45.30
2022-09-02T08:06:39.121Z,45.40
2022-09-02T08:09:06.931Z,45.40
2022-09-02T08:11:39.024Z,45.30
2022-09-02T08:14:09.000Z,45.30
2022-09-02T08:16:37.496Z,45.00
2022-09-02T08:19:04.368Z,45.30
2022-09-02T08:21:31.498Z,45.40
2022-09-02T08:23:58.883Z,45.40
2022-09-02T08:26:28.446Z,45.40
2022-09-02T08:28:55.620Z,45.40
2022-09-02T08:31:22.576Z,45.30
2022-09-02T08:33:49.401Z,45.40
2022-09-02T08:36:16.183Z,45.30
2022-09-02T08:38:43.165Z,45.30
2022-09-02T08:41:13.963Z,45.20
2022-09-02T08:43:41.516Z,45.20
2022-09-02T08:46:12.572Z,45.40
2022-09-02T08:48:46.942Z,45.20
2022-09-02T08:51:16.248Z,45.10
2022-09-02T08:54:00.602Z,45.40
2022-09-02T08:56:28.290Z,45.20
2022-09-02T08:58:56.914Z,45.30
2022-09-02T09:01:31.301Z,45.40
2022-09-02T09:04:16.655Z,45.20
2022-09-02T09:06:50.700Z,45.00
2022-09-02T09:09:29.685Z,45.00
2022-09-02T09:12:04.524Z,45.00
2022-09-02T09:14:46.921Z,45.00
2022-09-02T09:17:32.311Z,45.10
2022-09-02T09:20:00.682Z,45.80
2022-09-02T09:22:31.865Z,45.40
2022-09-02T09:24:58.797Z,45.10
2022-09-02T09:27:25.729Z,45.30
2022-09-02T09:29:52.562Z,45.20
2022-09-02T09:32:22.515Z,45.30
2022-09-02T09:34:52.494Z,45.20
2022-09-02T09:37:30.715Z,45.10
2022-09-02T09:39:59.583Z,45.90
2022-09-02T09:42:35.729Z,45.30
2022-09-02T09:45:35.043Z,45.10
2022-09-02T09:48:19.315Z,45.10
2022-09-02T09:50:46.880Z,45.20
2022-09-02T09:53:22.983Z,45.30
2022-09-02T09:56:01.649Z,45.00
2022-09-02T09:58:40.653Z,44.90
2022-09-02T10:01:19.990Z,45.10
2022-09-02T10:03:49.984Z,45.00
2022-09-02T10:06:17.963Z,44.60
2022-09-02T10:08:54.876Z,43.60
2022-09-02T10:11:22.785Z,41.80
2022-09-02T10:13:49.533Z,42.80
2022-09-02T10:16:24.638Z,42.40
2022-09-02T10:18:56.351Z,42.50
2022-09-02T10:21:56.126Z,42.50
2022-09-02T10:24:26.964Z,42.10
2022-09-02T10:26:54.483Z,42.20
2022-09-02T10:29:30.379Z,43.00
2022-09-02T10:32:00.233Z,42.20
2022-09-02T10:34:32.886Z,42.60
2022-09-02T10:37:05.733Z,41.40
2022-09-02T10:39:39.781Z,41.70
2022-09-02T10:42:27.252Z,42.10
2022-09-02T10:45:14.566Z,41.40
2022-09-02T10:47:41.376Z,40.10
2022-09-02T10:50:17.708Z,39.50
2022-09-02T10:53:05.874Z,39.10
2022-09-02T10:55:43.159Z,39.20
2022-09-02T10:58:28.950Z,38.80
2022-09-02T11:00:56.324Z,38.70
2022-09-02T13:09:07.151Z,39.90
2022-09-02T13:11:37.206Z,36.80
2022-09-02T13:14:06.814Z,36.50
2022-09-02T13:16:40.024Z,36.20
2022-09-02T13:19:11.571Z,35.90
2022-09-02T13:21:53.942Z,35.60
2022-09-02T13:24:23.588Z,36.00
2022-09-02T13:27:11.948Z,36.40
2022-09-02T13:29:41.904Z,37.00
2022-09-02T13:32:20.634Z,37.40
2022-09-02T13:34:47.850Z,37.90
2022-09-02T13:42:15.179Z,38.50
2022-09-02T13:44:45.146Z,38.60
2022-09-02T13:47:16.311Z,39.20
2022-09-02T13:49:43.327Z,38.90
2022-09-02T13:52:16.888Z,39.50
2022-09-02T13:54:45.462Z,39.10
2022-09-02T13:57:13.171Z,39.00
2022-09-02T13:59:41.049Z,38.50
2022-09-02T14:02:18.090Z,37.80
2022-09-02T14:04:44.937Z,36.70
2022-09-02T14:07:12.596Z,36.90
2022-09-02T14:09:39.410Z,37.00
2022-09-02T14:12:06.273Z,36.70
2022-09-02T14:14:33.075Z,36.60
2022-09-02T14:17:19.279Z,36.70
2022-09-02T14:19:46.199Z,35.80
2022-09-02T14:22:28.533Z,36.20
2022-09-02T14:24:55.324Z,39.20
2022-09-02T14:27:22.368Z,43.50
2022-09-02T14:29:51.576Z,45.10
2022-09-02T14:32:22.481Z,45.80
2022-09-02T14:34:49.508Z,47.10
2022-09-02T14:37:19.410Z,49.60
2022-09-02T14:39:52.569Z,48.30
2022-09-02T14:42:19.347Z,48.70
2022-09-02T14:55:31.797Z,48.30
2022-09-02T14:58:01.846Z,50.20
2022-09-02T15:00:32.632Z,46.60
2022-09-02T15:03:01.844Z,49.20
2022-09-02T15:05:29.315Z,47.70
2022-09-02T15:07:56.894Z,45.80
2022-09-02T15:12:54.894Z,41.80
2022-09-02T15:15:21.680Z,42.10
2022-09-02T15:17:48.460Z,42.20
2022-09-02T15:20:15.659Z,41.80
2022-09-02T15:22:43.378Z,43.00
2022-09-02T15:25:10.163Z,41.60
2022-09-02T15:27:37.408Z,41.40
2022-09-02T15:30:04.862Z,41.10
2022-09-02T15:32:31.819Z,40.70
2022-09-02T15:34:58.559Z,40.40
2022-09-02T15:37:26.201Z,40.50
2022-09-02T15:39:52.987Z,40.20
2022-09-02T15:42:19.814Z,40.20
2022-09-02T15:44:46.573Z,40.30
2022-09-02T15:47:13.411Z,39.90
2022-09-02T15:49:40.163Z,39.80
2022-09-02T15:52:07.017Z,39.70
2022-09-02T15:54:33.839Z,39.80
2022-09-02T15:57:00.616Z,39.50
2022-09-02T15:59:28.209Z,39.30
2022-09-02T16:01:55.899Z,40.00
2022-09-02T16:04:23.083Z,39.50
2022-09-02T16:06:51.198Z,39.40
2022-09-02T16:09:18.675Z,39.70
2022-09-02T16:11:49.728Z,38.90
2022-09-02T16:14:20.629Z,40.40
2022-09-02T16:16:49.451Z,39.80
2022-09-02T16:19:16.446Z,39.90
2022-09-02T16:21:43.379Z,39.30
2022-09-02T16:24:10.208Z,39.10
2022-09-02T16:26:38.269Z,38.70
2022-09-02T16:29:05.821Z,39.30
2022-09-02T16:31:33.954Z,39.20
2022-09-02T16:34:02.077Z,39.20
2022-09-02T16:36:33.326Z,39.40
2022-09-02T16:39:03.541Z,39.30
2022-09-02T16:41:36.459Z,39.30
2022-09-02T16:44:04.036Z,37.80
2022-09-02T16:46:30.884Z,39.20
2022-09-02T16:48:57.912Z,39.20
2022-09-02T16:51:24.948Z,39.70
2022-09-02T16:53:55.506Z,39.50
2022-09-02T16:56:23.676Z,38.40
2022-09-02T16:58:51.247Z,39.70
2022-09-02T17:01:18.096Z,39.50
2022-09-02T17:03:45.957Z,39.60
2022-09-02T17:06:12.810Z,40.50
2022-09-02T17:08:40.488Z,40.20
2022-09-02T17:11:16.264Z,40.20
2022-09-02T17:13:43.098Z,39.70
2022-09-02T17:16:09.961Z,40.90
2022-09-02T17:18:36.819Z,40.70
2022-09-02T17:21:17.513Z,40.80
2022-09-02T17:23:44.300Z,40.10
2022-09-02T17:26:11.075Z,41.20
2022-09-02T17:28:46.642Z,41.20
2022-09-02T17:31:14.465Z,42.00
2022-09-02T17:33:41.244Z,42.00
2022-09-02T17:36:09.115Z,41.50
2022-09-02T17:38:35.861Z,41.20
2022-09-02T17:41:21.766Z,41.40
2022-09-02T17:43:48.519Z,39.40
2022-09-02T17:46:15.338Z,40.00
2022-09-02T17:49:05.698Z,40.00
2022-09-02T17:51:28.904Z,40.60
2022-09-02T17:53:56.191Z,40.00
2022-09-02T17:56:35.562Z,40.00
2022-09-02T17:59:02.303Z,38.40
2022-09-02T18:01:29.109Z,39.70
2022-09-02T18:03:59.008Z,39.50
2022-09-02T18:06:28.290Z,38.00
2022-09-02T18:08:55.845Z,39.50
2022-09-02T18:11:22.744Z,39.40
2022-09-02T18:13:55.206Z,39.10
2022-09-02T18:16:32.314Z,37.70
2022-09-02T18:19:19.629Z,37.70
2022-09-02T18:22:02.213Z,36.90
2022-09-02T18:24:41.312Z,36.30
2022-09-02T18:27:37.594Z,36.00
2022-09-02T18:30:04.398Z,35.80
2022-09-02T18:32:40.435Z,36.80
2022-09-02T18:35:25.619Z,34.80
2022-09-02T18:38:11.349Z,34.90
2022-09-02T18:40:38.089Z,34.60
2022-09-02T18:43:13.047Z,35.80
2022-09-02T18:45:53.073Z,36.00
2022-09-02T18:48:32.842Z,34.30
2022-09-02T18:51:04.008Z,34.20
2022-09-02T18:53:36.418Z,33.90
2022-09-02T18:56:05.183Z,35.70
2022-09-02T18:58:34.272Z,35.80
2022-09-02T19:01:14.594Z,35.80
2022-09-02T19:03:41.475Z,33.90
2022-09-02T19:06:10.500Z,35.60
2022-09-02T19:08:38.338Z,39.40
2022-09-02T19:11:14.024Z,41.80
2022-09-02T19:13:47.940Z,42.20
2022-09-02T19:16:16.184Z,43.50
2022-09-02T19:18:42.963Z,46.60
2022-09-02T19:21:09.900Z,47.00
2022-09-02T19:23:36.674Z,47.60
2022-09-02T19:26:03.472Z,47.50
2022-09-02T19:28:30.254Z,48.00
2022-09-02T19:31:01.472Z,46.90
2022-09-02T19:33:29.131Z,43.50
2022-09-02T19:35:58.135Z,44.20
2022-09-02T19:38:25.994Z,42.70
2022-09-02T19:40:53.381Z,42.60
2022-09-02T19:43:21.058Z,46.20
2022-09-02T19:45:50.328Z,48.00
2022-09-02T19:48:18.068Z,49.10
2022-09-02T19:50:45.324Z,49.30
2022-09-02T19:53:17.293Z,49.70
2022-09-02T19:55:44.279Z,49.10
2022-09-02T19:58:11.093Z,46.10
2022-09-02T20:00:37.953Z,44.40
2022-09-02T20:03:04.740Z,43.70
2022-09-02T20:05:31.502Z,44.00
2022-09-02T20:07:58.334Z,47.30
2022-09-02T20:10:27.764Z,49.10
2022-09-02T20:12:55.130Z,49.90
2022-09-02T20:15:21.951Z,49.50
2022-09-02T20:17:49.259Z,49.30
2022-09-02T20:20:17.719Z,47.40
2022-09-02T20:22:46.640Z,45.80
2022-09-02T20:25:13.592Z,44.70
2022-09-02T20:27:40.352Z,43.40
2022-09-02T20:30:10.186Z,46.50
2022-09-02T20:32:55.828Z,47.20
2022-09-02T20:35:23.830Z,48.50
2022-09-02T20:37:52.074Z,50.60
2022-09-02T20:40:21.925Z,50.50
2022-09-02T20:43:18.113Z,50.20
2022-09-02T20:45:48.414Z,46.00
2022-09-02T20:48:15.352Z,46.00
2022-09-02T20:50:49.182Z,44.90
2022-09-02T20:53:21.843Z,42.10
2022-09-02T20:55:51.398Z,41.70
2022-09-02T20:58:22.369Z,45.80
2022-09-02T21:00:55.236Z,47.90
2022-09-02T21:03:25.815Z,49.30
2022-09-02T21:05:53.140Z,51.40
2022-09-02T21:08:30.233Z,50.80
2022-09-02T21:10:57.342Z,46.00
2022-09-02T21:13:39.466Z,50.80
2022-09-02T21:16:11.234Z,46.50
2022-09-02T21:18:40.091Z,46.60
2022-09-02T21:21:06.848Z,48.40
2022-09-02T21:23:38.538Z,48.50
2022-09-02T21:26:17.203Z,47.20
2022-09-02T21:28:45.199Z,47.00
2022-09-02T21:31:22.050Z,49.10
2022-09-02T21:33:49.047Z,46.80
2022-09-02T21:36:17.697Z,48.50
2022-09-02T21:38:44.867Z,48.50
2022-09-02T21:41:24.033Z,48.50
2022-09-02T21:43:55.831Z,46.50
2022-09-02T21:46:35.418Z,48.40
2022-09-02T21:49:26.256Z,46.80
2022-09-02T21:51:55.319Z,46.60
2022-09-02T21:54:23.589Z,48.40
2022-09-02T21:57:04.254Z,48.30
2022-09-02T21:59:43.352Z,46.80
2022-09-02T22:02:15.185Z,46.70
2022-09-02T22:04:41.965Z,46.70
2022-09-02T22:07:18.916Z,48.30
2022-09-02T22:09:52.720Z,49.00
2022-09-02T22:12:20.042Z,49.50
2022-09-02T22:14:54.640Z,49.20
2022-09-02T22:17:45.736Z,47.40
2022-09-02T22:20:17.151Z,49.20
2022-09-02T22:22:46.326Z,47.40
2022-09-02T22:25:16.975Z,49.30
2022-09-02T22:27:45.276Z,49.00
2022-09-02T22:30:15.166Z,49.00
2022-09-02T22:32:41.961Z,46.90
2022-09-02T22:35:11.054Z,48.40
2022-09-02T22:37:40.937Z,48.50
2022-09-02T22:40:08.165Z,48.30
2022-09-02T22:42:36.028Z,47.70
2022-09-02T22:45:28.681Z,48.10
2022-09-02T22:48:22.069Z,46.30
2022-09-02T22:51:09.047Z,46.10
2022-09-02T22:53:35.804Z,48.10
2022-09-02T22:56:03.402Z,47.30
2022-09-02T22:58:32.933Z,47.60
2022-09-02T23:00:59.673Z,45.90
2022-09-02T23:03:29.718Z,47.10
2022-09-02T23:06:03.670Z,47.70
2022-09-02T23:08:31.716Z,45.70
2022-09-02T23:11:06.763Z,47.10
2022-09-02T23:13:56.044Z,45.40
2022-09-02T23:16:26.445Z,45.60
2022-09-02T23:18:56.277Z,45.50
2022-09-02T23:21:41.671Z,45.40
2022-09-02T23:24:13.228Z,45.50
2022-09-02T23:26:45.154Z,47.10
2022-09-02T23:29:16.107Z,46.90
2022-09-02T23:31:50.739Z,45.20
2022-09-02T23:34:17.476Z,45.50
2022-09-02T23:36:52.297Z,46.50
2022-09-02T23:39:39.073Z,45.10
2022-09-02T23:42:07.493Z,45.00
2022-09-02T23:44:34.928Z,46.60
2022-09-02T23:47:04.440Z,46.90
2022-09-02T23:49:38.051Z,45.60
2022-09-02T23:52:08.022Z,45.60
2022-09-02T23:54:50.890Z,45.50
2022-09-02T23:57:33.969Z,45.40
